Time;durP1;ratioP1;P1;durP2;ratioP2;P2;SDS_P1;SDS_P2;PMS_P1;PMS_P2;Temp;Humidity;BMP_temperature;BMP_pressure;BME280_temperature;BME280_humidity;BME280_pressure;Samples;Min_cycle;Max_cycle;Signal;HPM_P1;HPM_P2
2022/04/13 00:01:47;;;;;;;9.75;5.70;;;;;;;;;;4995218;28;92263;-73
2022/04/13 00:04:15;;;;;;;11.30;5.70;;;;;;;;;;4995050;28;93098;-73
2022/04/13 00:06:42;;;;;;;13.82;5.95;;;;;;;;;;4993434;28;92532;-74
2022/04/13 00:09:10;;;;;;;10.88;5.72;;;;;;;;;;4992668;28;95386;-74
2022/04/13 00:11:36;;;;;;;12.40;6.05;;;;;;;;;;4994666;28;96269;-73
2022/04/13 00:14:03;;;;;;;17.42;5.93;;;;;;;;;;4997644;28;94520;-74
2022/04/13 00:16:29;;;;;;;14.07;5.90;;;;;;;;;;4993859;28;93842;-73
2022/04/13 00:18:56;;;;;;;15.90;5.90;;;;;;;;;;4993430;28;94111;-73
2022/04/13 00:21:22;;;;;;;9.43;6.18;;;;;;;;;;4994467;28;92519;-73
2022/04/13 00:23:48;;;;;;;11.60;5.95;;;;;;;;;;4994228;28;94191;-73
2022/04/13 00:26:15;;;;;;;15.45;6.78;;;;;;;;;;4995109;28;93730;-73
2022/04/13 00:28:41;;;;;;;10.60;5.38;;;;;;;;;;4994359;28;93373;-74
2022/04/13 00:31:07;;;;;;;13.88;6.03;;;;;;;;;;4994076;28;92397;-74
2022/04/13 00:33:34;;;;;;;14.45;5.88;;;;;;;;;;4992422;28;96681;-74
2022/04/13 00:36:00;;;;;;;7.82;5.75;;;;;;;;;;4997781;28;92499;-74
2022/04/13 00:38:27;;;;;;;10.15;5.60;;;;;;;;;;4993613;28;94242;-74
2022/04/13 00:40:54;;;;;;;9.93;5.75;;;;;;;;;;4994435;28;92635;-73
2022/04/13 00:43:20;;;;;;;12.45;5.97;;;;;;;;;;4993828;28;92832;-73
2022/04/13 00:45:47;;;;;;;10.50;6.15;;;;;;;;;;4994306;28;94438;-74
2022/04/13 00:48:28;;;;;;;15.48;6.25;;;;;;;;;;4994068;28;92543;-74
2022/04/13 00:50:54;;;;;;;11.57;5.93;;;;;;;;;;4994248;28;94016;-74
2022/04/13 00:53:22;;;;;;;11.88;6.22;;;;;;;;;;4993941;28;93659;-74
2022/04/13 00:55:50;;;;;;;13.63;6.68;;;;;;;;;;4994229;28;92483;-74
2022/04/13 00:58:17;;;;;;;11.48;6.63;;;;;;;;;;4995014;28;95465;-74
2022/04/13 01:00:52;;;;;;;12.57;6.30;;;;;;;;;;4993993;28;92491;-74
2022/04/13 01:03:20;;;;;;;16.10;6.45;;;;;;;;;;4994346;28;93106;-74
2022/04/13 01:05:47;;;;;;;8.52;6.05;;;;;;;;;;4993467;28;93790;-74
2022/04/13 01:08:15;;;;;;;15.98;6.80;;;;;;;;;;4993423;28;92432;-74
2022/04/13 01:10:44;;;;;;;15.18;6.57;;;;;;;;;;4994068;28;94351;-74
2022/04/13 01:13:11;;;;;;;12.23;7.38;;;;;;;;;;4992806;28;94664;-75
2022/04/13 01:15:37;;;;;;;9.50;6.60;;;;;;;;;;4994666;28;91875;-74
2022/04/13 01:18:04;;;;;;;14.70;6.03;;;;;;;;;;4996791;28;92691;-74
2022/04/13 01:20:31;;;;;;;13.32;6.57;;;;;;;;;;4993277;28;92470;-75
2022/04/13 01:22:57;;;;;;;8.48;6.50;;;;;;;;;;4992442;28;94931;-74
2022/04/13 01:25:24;;;;;;;12.27;6.75;;;;;;;;;;4993420;28;93099;-75
2022/04/13 01:27:51;;;;;;;9.05;6.85;;;;;;;;;;4993340;28;93796;-74
2022/04/13 01:30:17;;;;;;;13.20;7.40;;;;;;;;;;4993452;28;93906;-74
2022/04/13 01:32:43;;;;;;;14.20;6.90;;;;;;;;;;4992484;28;93127;-74
2022/04/13 01:35:10;;;;;;;14.38;6.80;;;;;;;;;;4993542;28;92446;-74
2022/04/13 01:37:36;;;;;;;11.82;7.15;;;;;;;;;;4993362;28;93086;-74
2022/04/13 01:40:03;;;;;;;16.13;7.68;;;;;;;;;;4996310;28;93557;-74
2022/04/13 01:42:29;;;;;;;10.15;6.97;;;;;;;;;;4993090;28;93555;-74
2022/04/13 01:44:55;;;;;;;10.07;6.60;;;;;;;;;;4993331;28;93599;-74
2022/04/13 01:47:22;;;;;;;14.02;6.97;;;;;;;;;;4990912;28;95619;-74
2022/04/13 01:49:48;;;;;;;9.43;6.85;;;;;;;;;;4993290;28;95518;-74
2022/04/13 01:52:14;;;;;;;13.07;6.72;;;;;;;;;;4993390;28;94338;-74
2022/04/13 01:54:41;;;;;;;12.13;6.75;;;;;;;;;;4992376;28;92877;-74
2022/04/13 01:57:07;;;;;;;10.82;7.07;;;;;;;;;;4993158;28;94054;-74
2022/04/13 01:59:33;;;;;;;8.68;6.85;;;;;;;;;;4992761;28;94443;-74
2022/04/13 02:02:04;;;;;;;9.68;7.00;;;;;;;;;;4995757;28;92503;-74
2022/04/13 02:04:31;;;;;;;14.20;6.75;;;;;;;;;;4993520;28;92887;-74
2022/04/13 02:06:58;;;;;;;11.68;6.57;;;;;;;;;;4992574;28;93333;-74
2022/04/13 02:09:24;;;;;;;13.73;6.82;;;;;;;;;;4992371;28;93187;-74
2022/04/13 02:11:50;;;;;;;13.25;7.72;;;;;;;;;;4990913;28;96105;-74
2022/04/13 02:14:17;;;;;;;16.42;7.00;;;;;;;;;;4993097;28;92474;-74
2022/04/13 02:16:43;;;;;;;13.15;7.38;;;;;;;;;;4992051;28;94083;-74
2022/04/13 02:19:12;;;;;;;14.43;6.72;;;;;;;;;;4993193;28;93522;-74
2022/04/13 02:21:39;;;;;;;20.63;7.32;;;;;;;;;;4992611;28;92421;-74
2022/04/13 02:24:05;;;;;;;12.30;6.63;;;;;;;;;;4994998;28;94031;-74
2022/04/13 02:26:32;;;;;;;15.93;6.95;;;;;;;;;;4992677;28;93150;-74
2022/04/13 02:28:58;;;;;;;9.55;6.32;;;;;;;;;;4992497;28;94299;-74
2022/04/13 02:31:25;;;;;;;17.58;7.05;;;;;;;;;;4992304;28;93122;-74
2022/04/13 02:33:53;;;;;;;12.38;7.00;;;;;;;;;;4992820;28;92913;-74
2022/04/13 02:36:20;;;;;;;16.92;7.03;;;;;;;;;;4990450;28;94965;-74
2022/04/13 02:38:46;;;;;;;14.43;7.55;;;;;;;;;;4992592;28;93422;-75
2022/04/13 02:41:13;;;;;;;19.20;7.20;;;;;;;;;;4992520;28;92464;-74
2022/04/13 02:43:40;;;;;;;11.88;6.30;;;;;;;;;;4994615;28;93337;-75
2022/04/13 02:46:06;;;;;;;13.35;6.65;;;;;;;;;;4999257;28;93535;-73
2022/04/13 02:48:33;;;;;;;12.88;7.15;;;;;;;;;;4995903;28;92852;-75
2022/04/13 02:50:59;;;;;;;13.05;5.72;;;;;;;;;;4994914;28;93470;-73
2022/04/13 02:53:26;;;;;;;9.77;6.63;;;;;;;;;;4996346;28;91711;-73
2022/04/13 02:55:53;;;;;;;17.65;6.32;;;;;;;;;;4996292;28;93488;-73
2022/04/13 02:58:19;;;;;;;10.15;5.82;;;;;;;;;;4995562;28;93258;-75
2022/04/13 03:00:47;;;;;;;12.65;7.00;;;;;;;;;;4994057;28;94852;-73
2022/04/13 03:03:13;;;;;;;13.82;6.13;;;;;;;;;;4995859;28;95146;-73
2022/04/13 03:05:40;;;;;;;12.52;7.10;;;;;;;;;;4994618;28;94220;-73
2022/04/13 03:08:06;;;;;;;10.70;6.43;;;;;;;;;;4998489;28;92590;-73
2022/04/13 03:10:32;;;;;;;10.60;6.10;;;;;;;;;;4995345;28;94202;-75
2022/04/13 03:12:59;;;;;;;14.63;6.60;;;;;;;;;;4994982;28;92599;-75
2022/04/13 03:15:26;;;;;;;13.73;6.00;;;;;;;;;;4995556;28;93930;-73
2022/04/13 03:17:52;;;;;;;9.75;5.53;;;;;;;;;;4996229;28;93517;-75
2022/04/13 03:20:19;;;;;;;7.75;5.93;;;;;;;;;;4995206;28;93042;-75
2022/04/13 03:22:45;;;;;;;12.88;7.07;;;;;;;;;;4995561;28;94153;-75
2022/04/13 03:25:12;;;;;;;8.60;6.25;;;;;;;;;;4993456;28;95551;-75
2022/04/13 03:27:38;;;;;;;14.73;7.25;;;;;;;;;;4998558;28;92461;-75
2022/04/13 03:30:05;;;;;;;13.40;7.07;;;;;;;;;;4995375;28;93435;-75
2022/04/13 03:32:35;;;;;;;14.73;7.13;;;;;;;;;;4994682;28;92418;-75
2022/04/13 03:35:02;;;;;;;14.40;7.82;;;;;;;;;;4995664;28;93893;-75
2022/04/13 03:37:29;;;;;;;13.30;7.50;;;;;;;;;;4997163;28;93505;-75
2022/04/13 03:39:55;;;;;;;15.48;7.40;;;;;;;;;;4994840;28;93237;-74
2022/04/13 03:42:21;;;;;;;11.60;8.23;;;;;;;;;;4996111;28;93025;-75
2022/04/13 03:44:48;;;;;;;18.05;8.25;;;;;;;;;;4995188;28;93963;-75
2022/04/13 03:47:14;;;;;;;12.18;7.60;;;;;;;;;;4994522;28;92408;-74
2022/04/13 03:49:41;;;;;;;16.55;8.68;;;;;;;;;;4996254;28;95502;-75
2022/04/13 03:52:07;;;;;;;16.80;9.00;;;;;;;;;;4995327;28;92475;-75
2022/04/13 03:54:33;;;;;;;19.85;8.68;;;;;;;;;;4993083;28;93171;-75
2022/04/13 03:57:00;;;;;;;17.90;8.50;;;;;;;;;;4994942;28;94425;-75
2022/04/13 03:59:26;;;;;;;16.23;8.68;;;;;;;;;;4994836;28;92503;-73
2022/04/13 04:01:53;;;;;;;15.48;9.00;;;;;;;;;;4994167;28;93404;-73
2022/04/13 04:04:19;;;;;;;14.63;9.45;;;;;;;;;;4994923;28;92941;-74
2022/04/13 04:06:46;;;;;;;22.52;9.60;;;;;;;;;;4994626;28;92858;-74
2022/04/13 04:09:12;;;;;;;17.02;10.63;;;;;;;;;;4994060;28;93442;-73
2022/04/13 04:11:38;;;;;;;13.30;9.80;;;;;;;;;;4996788;28;93150;-73
2022/04/13 04:14:05;;;;;;;14.75;10.05;;;;;;;;;;4993372;28;94941;-73
2022/04/13 04:16:31;;;;;;;17.42;10.18;;;;;;;;;;4992695;28;93425;-73
2022/04/13 04:18:58;;;;;;;14.82;10.27;;;;;;;;;;4994017;28;92484;-73
2022/04/13 04:21:24;;;;;;;15.25;10.57;;;;;;;;;;4993212;28;93922;-74
2022/04/13 04:23:51;;;;;;;20.70;10.75;;;;;;;;;;4993930;28;94420;-74
2022/04/13 04:26:17;;;;;;;18.50;10.40;;;;;;;;;;4994082;28;93163;-75
2022/04/13 04:28:44;;;;;;;21.63;11.10;;;;;;;;;;4992867;28;93970;-74
2022/04/13 04:31:10;;;;;;;18.73;11.38;;;;;;;;;;4994059;28;93468;-74
2022/04/13 04:33:36;;;;;;;15.25;10.93;;;;;;;;;;4996470;28;92557;-74
2022/04/13 04:36:03;;;;;;;17.73;10.60;;;;;;;;;;4992950;28;94443;-74
2022/04/13 04:38:32;;;;;;;19.20;10.43;;;;;;;;;;4991759;28;94862;-74
2022/04/13 04:40:58;;;;;;;20.75;10.82;;;;;;;;;;4993380;28;96094;-74
2022/04/13 04:43:25;;;;;;;17.95;10.77;;;;;;;;;;4992641;28;94196;-75
2022/04/13 04:45:51;;;;;;;17.15;11.07;;;;;;;;;;4993623;28;93062;-74
2022/04/13 04:48:17;;;;;;;21.85;10.80;;;;;;;;;;4993387;28;93023;-74
2022/04/13 04:50:44;;;;;;;20.33;11.20;;;;;;;;;;4992609;28;93735;-74
2022/04/13 04:53:10;;;;;;;16.67;10.27;;;;;;;;;;4993317;28;92557;-74
2022/04/13 04:55:36;;;;;;;22.58;11.32;;;;;;;;;;4996558;28;94291;-74
2022/04/13 04:58:03;;;;;;;18.67;12.02;;;;;;;;;;4992576;28;92490;-74
2022/04/13 05:00:35;;;;;;;23.75;11.85;;;;;;;;;;4993139;28;93747;-74
2022/04/13 05:03:01;;;;;;;20.65;12.15;;;;;;;;;;4991246;28;96597;-74
2022/04/13 05:05:29;;;;;;;17.73;11.32;;;;;;;;;;4991626;28;92551;-74
2022/04/13 05:07:55;;;;;;;22.48;12.65;;;;;;;;;;4992276;28;93737;-74
2022/04/13 05:10:21;;;;;;;29.70;13.30;;;;;;;;;;4992555;28;94149;-74
2022/04/13 05:12:57;;;;;;;20.30;12.73;;;;;;;;;;4992394;28;92608;-74
2022/04/13 05:15:24;;;;;;;19.75;12.27;;;;;;;;;;4996717;27;92622;-75
2022/04/13 05:17:51;;;;;;;17.75;12.35;;;;;;;;;;4992361;28;92925;-74
2022/04/13 05:20:17;;;;;;;17.90;12.68;;;;;;;;;;4993528;28;93965;-74
2022/04/13 05:22:43;;;;;;;24.80;14.57;;;;;;;;;;4992423;28;94271;-74
2022/04/13 05:25:11;;;;;;;22.15;13.93;;;;;;;;;;4992306;28;92926;-74
2022/04/13 05:27:37;;;;;;;24.10;13.70;;;;;;;;;;4990991;28;94891;-75
2022/04/13 05:30:05;;;;;;;21.80;13.45;;;;;;;;;;4992581;28;92460;-75
2022/04/13 05:32:31;;;;;;;23.25;14.48;;;;;;;;;;4991991;28;92463;-74
2022/04/13 05:35:01;;;;;;;23.55;13.82;;;;;;;;;;4992803;28;93793;-74
2022/04/13 05:37:28;;;;;;;24.02;15.48;;;;;;;;;;4995386;28;94977;-74
2022/04/13 05:39:54;;;;;;;23.20;15.98;;;;;;;;;;4992055;28;94334;-74
2022/04/13 05:42:24;;;;;;;25.33;13.55;;;;;;;;;;4992777;28;95071;-74
2022/04/13 05:44:51;;;;;;;25.20;14.88;;;;;;;;;;4993316;28;91738;-74
2022/04/13 05:47:17;;;;;;;18.33;14.00;;;;;;;;;;4992115;28;92699;-74
2022/04/13 05:49:44;;;;;;;25.50;13.57;;;;;;;;;;4992250;28;94298;-74
2022/04/13 05:52:10;;;;;;;23.33;15.02;;;;;;;;;;4990837;28;95676;-75
2022/04/13 05:54:37;;;;;;;21.50;14.18;;;;;;;;;;4991595;28;96471;-75
2022/04/13 05:57:04;;;;;;;24.88;14.57;;;;;;;;;;4992422;28;93632;-75
2022/04/13 05:59:30;;;;;;;22.75;15.20;;;;;;;;;;4995465;28;92588;-74
2022/04/13 06:01:56;;;;;;;24.42;15.68;;;;;;;;;;4992095;28;93418;-74
2022/04/13 06:04:23;;;;;;;18.50;14.52;;;;;;;;;;4992188;28;92479;-74
2022/04/13 06:06:50;;;;;;;21.40;14.80;;;;;;;;;;4992029;28;94098;-74
2022/04/13 06:09:16;;;;;;;21.80;14.63;;;;;;;;;;4992993;28;93660;-75
2022/04/13 06:11:42;;;;;;;25.67;15.48;;;;;;;;;;4992103;28;92532;-74
2022/04/13 06:14:09;;;;;;;20.83;14.85;;;;;;;;;;4991798;28;94001;-74
2022/04/13 06:16:35;;;;;;;22.15;14.75;;;;;;;;;;4989404;28;95968;-74
2022/04/13 06:19:01;;;;;;;26.25;14.95;;;;;;;;;;4992386;28;92413;-74
2022/04/13 06:21:28;;;;;;;23.42;15.02;;;;;;;;;;4994097;28;93977;-74
2022/04/13 06:23:54;;;;;;;20.65;14.23;;;;;;;;;;4992296;28;92442;-74
2022/04/13 06:26:21;;;;;;;21.70;13.38;;;;;;;;;;4992458;28;94342;-74
2022/04/13 06:28:47;;;;;;;20.38;13.90;;;;;;;;;;4991477;28;94459;-74
2022/04/13 06:31:14;;;;;;;19.00;12.82;;;;;;;;;;4991992;28;92463;-74
2022/04/13 06:33:40;;;;;;;17.45;11.93;;;;;;;;;;4992362;28;93195;-74
2022/04/13 06:36:08;;;;;;;18.60;13.57;;;;;;;;;;4991465;28;92552;-74
2022/04/13 06:38:35;;;;;;;18.70;12.70;;;;;;;;;;4991813;28;92487;-74
2022/04/13 06:41:01;;;;;;;20.25;12.68;;;;;;;;;;4990780;28;94888;-74
2022/04/13 06:43:28;;;;;;;21.10;13.18;;;;;;;;;;4994254;28;93396;-74
2022/04/13 06:45:55;;;;;;;18.70;14.00;;;;;;;;;;4992082;28;93884;-74
2022/04/13 06:48:21;;;;;;;28.23;12.65;;;;;;;;;;4991655;28;94243;-74
2022/04/13 06:50:48;;;;;;;16.02;10.85;;;;;;;;;;4990878;28;92865;-75
2022/04/13 06:53:15;;;;;;;16.13;10.57;;;;;;;;;;4992011;28;94362;-75
2022/04/13 06:55:42;;;;;;;17.65;10.05;;;;;;;;;;4991380;28;93110;-75
2022/04/13 06:58:08;;;;;;;14.32;8.88;;;;;;;;;;4991828;28;91666;-74
2022/04/13 07:00:34;;;;;;;16.40;8.80;;;;;;;;;;4992249;28;93628;-74
2022/04/13 07:03:01;;;;;;;15.18;9.25;;;;;;;;;;4992633;28;93942;-75
2022/04/13 07:05:47;;;;;;;12.20;7.68;;;;;;;;;;4994397;28;94918;-74
2022/04/13 07:08:14;;;;;;;20.90;8.27;;;;;;;;;;4992077;28;94002;-74
2022/04/13 07:10:40;;;;;;;11.43;7.97;;;;;;;;;;4991437;28;92451;-72
2022/04/13 07:13:10;;;;;;;9.73;7.57;;;;;;;;;;4992416;28;94000;-72
2022/04/13 07:15:37;;;;;;;12.95;8.00;;;;;;;;;;4991655;28;93675;-72
2022/04/13 07:18:03;;;;;;;12.48;7.75;;;;;;;;;;4991538;28;92422;-73
2022/04/13 07:20:29;;;;;;;10.63;7.60;;;;;;;;;;4992029;28;94040;-72
2022/04/13 07:22:56;;;;;;;11.35;7.43;;;;;;;;;;4993088;28;93461;-74
2022/04/13 07:25:23;;;;;;;12.15;7.38;;;;;;;;;;4994457;28;92438;-74
2022/04/13 07:27:50;;;;;;;9.52;8.00;;;;;;;;;;4992492;28;94691;-75
2022/04/13 07:30:17;;;;;;;9.02;7.18;;;;;;;;;;4994119;28;94802;-75
2022/04/13 07:32:44;;;;;;;12.35;6.90;;;;;;;;;;4994990;28;95597;-74
2022/04/13 07:35:11;;;;;;;11.68;7.63;;;;;;;;;;4995759;28;92978;-75
2022/04/13 07:37:40;;;;;;;11.18;7.80;;;;;;;;;;4995043;28;92456;-75
2022/04/13 07:40:11;;;;;;;12.52;7.75;;;;;;;;;;4994816;28;94002;-75
2022/04/13 07:42:37;;;;;;;12.07;7.32;;;;;;;;;;4994702;28;94068;-75
2022/04/13 07:45:04;;;;;;;9.18;6.28;;;;;;;;;;4995232;28;92533;-75
2022/04/13 07:47:31;;;;;;;8.48;5.75;;;;;;;;;;4997829;28;93163;-75
2022/04/13 07:49:58;;;;;;;11.43;5.82;;;;;;;;;;4995538;28;92531;-75
2022/04/13 07:52:24;;;;;;;7.55;5.45;;;;;;;;;;4994143;28;92534;-74
2022/04/13 07:54:51;;;;;;;6.32;5.18;;;;;;;;;;4993391;28;96603;-75
2022/04/13 07:57:17;;;;;;;14.70;6.43;;;;;;;;;;4995057;28;92479;-75
2022/04/13 07:59:44;;;;;;;12.43;6.65;;;;;;;;;;4994036;28;94053;-73
2022/04/13 08:02:10;;;;;;;13.80;5.95;;;;;;;;;;4994779;28;93591;-74
2022/04/13 08:04:37;;;;;;;13.32;5.65;;;;;;;;;;4994595;28;92441;-73
2022/04/13 08:07:03;;;;;;;12.77;6.03;;;;;;;;;;4993902;28;93941;-74
2022/04/13 08:09:30;;;;;;;13.75;5.70;;;;;;;;;;4997733;28;93293;-73
2022/04/13 08:11:56;;;;;;;7.90;5.10;;;;;;;;;;4995087;28;92927;-73
2022/04/13 08:14:22;;;;;;;9.40;6.38;;;;;;;;;;4993644;28;93806;-74
2022/04/13 08:16:49;;;;;;;13.30;5.65;;;;;;;;;;4994797;28;93219;-74
2022/04/13 08:19:16;;;;;;;12.60;5.28;;;;;;;;;;4993143;28;94938;-73
2022/04/13 08:21:42;;;;;;;7.00;5.22;;;;;;;;;;4993601;28;93312;-74
2022/04/13 08:24:09;;;;;;;10.02;5.40;;;;;;;;;;4995078;28;92445;-73
2022/04/13 08:26:35;;;;;;;8.63;5.78;;;;;;;;;;4994492;28;93347;-73
2022/04/13 08:29:02;;;;;;;14.48;5.80;;;;;;;;;;4993636;28;94169;-74
2022/04/13 08:31:28;;;;;;;9.23;4.82;;;;;;;;;;4997652;28;92527;-73
2022/04/13 08:33:55;;;;;;;10.38;5.43;;;;;;;;;;4994529;28;94101;-74
2022/04/13 08:36:21;;;;;;;12.50;5.53;;;;;;;;;;4993997;28;91719;-74
2022/04/13 08:38:48;;;;;;;7.47;5.22;;;;;;;;;;4994383;28;92516;-74
2022/04/13 08:41:14;;;;;;;6.43;4.65;;;;;;;;;;4993362;28;94528;-73
2022/04/13 08:43:45;;;;;;;8.05;4.65;;;;;;;;;;4991770;28;94983;-74
2022/04/13 08:46:13;;;;;;;5.85;4.57;;;;;;;;;;4994271;28;96333;-73
2022/04/13 08:48:43;;;;;;;11.35;4.85;;;;;;;;;;4993205;28;93558;-74
2022/04/13 08:51:12;;;;;;;10.57;5.00;;;;;;;;;;4994218;28;92473;-73
2022/04/13 08:53:39;;;;;;;8.82;4.55;;;;;;;;;;4996531;28;93945;-74
2022/04/13 08:56:08;;;;;;;10.73;4.80;;;;;;;;;;4993646;28;92535;-74
2022/04/13 08:58:50;;;;;;;8.15;4.30;;;;;;;;;;4993838;28;93868;-74
2022/04/13 09:01:24;;;;;;;7.60;4.22;;;;;;;;;;4994218;28;93364;-74
2022/04/13 09:03:51;;;;;;;8.95;3.95;;;;;;;;;;4993256;28;92471;-74
2022/04/13 09:06:20;;;;;;;8.75;3.83;;;;;;;;;;4994033;28;94068;-74
2022/04/13 09:08:53;;;;;;;10.73;4.40;;;;;;;;;;4991649;28;96472;-74
2022/04/13 09:11:22;;;;;;;8.68;4.30;;;;;;;;;;4993288;28;92439;-73
2022/04/13 09:13:49;;;;;;;10.10;4.43;;;;;;;;;;4993877;28;93998;-74
2022/04/13 09:16:16;;;;;;;8.15;3.85;;;;;;;;;;4996946;28;94390;-74
2022/04/13 09:18:43;;;;;;;11.82;3.75;;;;;;;;;;4992767;28;93878;-74
2022/04/13 09:21:14;;;;;;;6.28;3.72;;;;;;;;;;4993848;28;93162;-74
2022/04/13 09:23:40;;;;;;;11.20;4.38;;;;;;;;;;4993508;28;92526;-73
2022/04/13 09:26:07;;;;;;;8.57;3.70;;;;;;;;;;4993935;28;94433;-73
2022/04/13 09:28:34;;;;;;;16.02;3.83;;;;;;;;;;4993140;28;94310;-74
2022/04/13 09:31:01;;;;;;;12.15;3.33;;;;;;;;;;4992595;28;92485;-75
2022/04/13 09:33:28;;;;;;;8.60;3.75;;;;;;;;;;4991960;28;94913;-75
2022/04/13 09:35:54;;;;;;;6.95;3.45;;;;;;;;;;4996543;28;94169;-75
2022/04/13 09:38:20;;;;;;;6.13;3.25;;;;;;;;;;4993098;28;94016;-75
2022/04/13 09:40:49;;;;;;;7.45;4.32;;;;;;;;;;4993647;28;93777;-75
2022/04/13 09:43:19;;;;;;;9.93;3.42;;;;;;;;;;4993583;28;92521;-75
2022/04/13 09:45:50;;;;;;;11.52;3.85;;;;;;;;;;4992330;28;94375;-75
2022/04/13 09:48:20;;;;;;;9.32;3.35;;;;;;;;;;4993226;28;93078;-75
2022/04/13 09:50:48;;;;;;;6.28;3.22;;;;;;;;;;4993959;28;91917;-75
2022/04/13 09:53:15;;;;;;;7.50;4.25;;;;;;;;;;4992582;28;92601;-75
2022/04/13 09:55:42;;;;;;;12.35;3.80;;;;;;;;;;4992795;28;94566;-75
2022/04/13 09:58:12;;;;;;;10.57;3.30;;;;;;;;;;4994583;28;94902;-75
2022/04/13 10:00:40;;;;;;;9.50;3.28;;;;;;;;;;4991980;28;94022;-75
2022/04/13 10:03:10;;;;;;;9.20;3.20;;;;;;;;;;4993032;28;92444;-75
2022/04/13 10:05:37;;;;;;;10.48;2.92;;;;;;;;;;4993011;28;93672;-75
2022/04/13 10:08:10;;;;;;;7.82;3.90;;;;;;;;;;4991985;28;94233;-75
2022/04/13 10:10:41;;;;;;;15.23;4.35;;;;;;;;;;4992637;28;92462;-75
2022/04/13 10:13:07;;;;;;;13.88;4.10;;;;;;;;;;4992442;28;92889;-75
2022/04/13 10:15:34;;;;;;;9.38;3.88;;;;;;;;;;4992902;28;93252;-75
2022/04/13 10:18:04;;;;;;;10.43;3.97;;;;;;;;;;4992937;28;92503;-76
2022/04/13 10:20:43;;;;;;;9.63;3.47;;;;;;;;;;4995103;28;93143;-76
2022/04/13 10:23:09;;;;;;;11.73;3.50;;;;;;;;;;4991009;28;94925;-75
2022/04/13 10:25:36;;;;;;;7.10;3.33;;;;;;;;;;4992600;28;96821;-75
2022/04/13 10:28:03;;;;;;;13.65;4.05;;;;;;;;;;4991934;28;93249;-75
2022/04/13 10:30:30;;;;;;;11.93;4.00;;;;;;;;;;4992439;28;92466;-76
2022/04/13 10:33:11;;;;;;;8.82;2.60;;;;;;;;;;4992616;28;93978;-76
2022/04/13 10:35:44;;;;;;;10.98;3.03;;;;;;;;;;4991178;28;93437;-75
2022/04/13 10:38:12;;;;;;;9.63;3.45;;;;;;;;;;4992756;28;92440;-75
2022/04/13 10:40:40;;;;;;;15.75;3.50;;;;;;;;;;4992910;28;93984;-75
2022/04/13 10:43:08;;;;;;;8.98;3.53;;;;;;;;;;4994916;28;93176;-76
2022/04/13 10:45:36;;;;;;;8.98;4.03;;;;;;;;;;4992186;28;94117;-75
2022/04/13 10:48:07;;;;;;;10.82;3.83;;;;;;;;;;4990796;28;95907;-75
2022/04/13 10:50:45;;;;;;;7.78;3.88;;;;;;;;;;4992817;28;92455;-75
2022/04/13 10:53:12;;;;;;;11.20;4.00;;;;;;;;;;4992474;28;93276;-76
2022/04/13 10:55:38;;;;;;;13.18;4.05;;;;;;;;;;4991830;28;94123;-76
2022/04/13 10:58:26;;;;;;;14.32;3.90;;;;;;;;;;4992451;28;92549;-76
2022/04/13 11:00:56;;;;;;;13.38;4.28;;;;;;;;;;4993461;28;93984;-76
2022/04/13 11:03:25;;;;;;;8.40;3.55;;;;;;;;;;4992612;28;94060;-76
2022/04/13 11:05:52;;;;;;;10.65;3.40;;;;;;;;;;4999318;28;91790;-76
2022/04/13 11:08:23;;;;;;;12.52;3.35;;;;;;;;;;4995337;28;95619;-76
2022/04/13 11:10:50;;;;;;;10.70;4.10;;;;;;;;;;4995069;28;93260;-75
2022/04/13 11:13:17;;;;;;;9.70;3.40;;;;;;;;;;4993836;28;94825;-76
2022/04/13 11:15:45;;;;;;;11.50;3.75;;;;;;;;;;4995081;28;94089;-75
2022/04/13 11:18:18;;;;;;;14.30;4.03;;;;;;;;;;4994952;28;92475;-76
2022/04/13 11:21:03;;;;;;;13.43;3.92;;;;;;;;;;4995290;28;93923;-76
2022/04/13 11:23:48;;;;;;;11.40;4.18;;;;;;;;;;4994592;28;94310;-76
2022/04/13 11:26:35;;;;;;;14.93;4.80;;;;;;;;;;4995557;28;92480;-75
2022/04/13 11:29:18;;;;;;;11.70;4.47;;;;;;;;;;4987727;28;93180;-76
2022/04/13 11:31:59;;;;;;;8.18;4.03;;;;;;;;;;4995231;28;91695;-75
2022/04/13 11:34:44;;;;;;;9.60;4.22;;;;;;;;;;4995488;28;93555;-75
2022/04/13 11:37:23;;;;;;;12.90;4.63;;;;;;;;;;4995530;28;94925;-75
2022/04/13 11:39:52;;;;;;;11.73;4.40;;;;;;;;;;4993885;28;94842;-75
2022/04/13 11:42:19;;;;;;;11.70;4.40;;;;;;;;;;4995336;28;96471;-75
2022/04/13 11:44:46;;;;;;;9.68;4.22;;;;;;;;;;4994133;28;93291;-75
2022/04/13 11:47:13;;;;;;;9.00;3.75;;;;;;;;;;4995131;28;92417;-75
2022/04/13 11:49:56;;;;;;;6.03;3.53;;;;;;;;;;4997797;28;92915;-75
2022/04/13 11:52:43;;;;;;;8.75;3.22;;;;;;;;;;4994587;28;92531;-75
2022/04/13 11:55:23;;;;;;;5.65;3.08;;;;;;;;;;4994984;28;93319;-75
2022/04/13 11:57:59;;;;;;;11.45;4.15;;;;;;;;;;4995420;28;93306;-75
2022/04/13 12:00:44;;;;;;;8.52;3.20;;;;;;;;;;4995720;28;92512;-75
2022/04/13 12:03:12;;;;;;;7.75;3.40;;;;;;;;;;4998190;28;93831;-75
2022/04/13 12:05:39;;;;;;;7.75;2.97;;;;;;;;;;4992161;28;95517;-75
2022/04/13 12:08:16;;;;;;;9.35;3.25;;;;;;;;;;4994443;28;92474;-75
2022/04/13 12:10:45;;;;;;;7.53;3.25;;;;;;;;;;4994653;28;93372;-75
2022/04/13 12:13:11;;;;;;;10.38;3.22;;;;;;;;;;4997085;28;94572;-75
2022/04/13 12:15:45;;;;;;;11.00;3.33;;;;;;;;;;4993238;28;94421;-75
2022/04/13 12:18:11;;;;;;;11.15;2.83;;;;;;;;;;4994745;28;93799;-75
2022/04/13 12:20:38;;;;;;;11.43;3.65;;;;;;;;;;4993917;28;92512;-75
2022/04/13 12:23:18;;;;;;;15.75;4.22;;;;;;;;;;4995021;28;94480;-75
2022/04/13 12:25:45;;;;;;;12.10;4.03;;;;;;;;;;4994194;28;93519;-75
2022/04/13 12:28:11;;;;;;;9.88;4.45;;;;;;;;;;4994195;28;92498;-75
2022/04/13 12:30:38;;;;;;;9.48;4.65;;;;;;;;;;4992678;28;94939;-74
2022/04/13 12:33:16;;;;;;;14.30;5.43;;;;;;;;;;4994296;28;94337;-75
2022/04/13 12:35:50;;;;;;;10.70;5.30;;;;;;;;;;4996605;28;92790;-75
2022/04/13 12:38:25;;;;;;;10.43;5.45;;;;;;;;;;4994387;28;94347;-75
2022/04/13 12:41:00;;;;;;;14.57;7.07;;;;;;;;;;4993991;28;93146;-75
2022/04/13 12:43:27;;;;;;;18.05;7.38;;;;;;;;;;4994167;28;93447;-74
2022/04/13 12:45:54;;;;;;;15.95;6.75;;;;;;;;;;4993807;28;93866;-74
2022/04/13 12:48:27;;;;;;;13.80;7.40;;;;;;;;;;4994286;28;91795;-75
2022/04/13 12:50:57;;;;;;;11.57;6.07;;;;;;;;;;4994345;28;93088;-75
2022/04/13 12:53:24;;;;;;;10.77;6.40;;;;;;;;;;4993806;28;93298;-75
2022/04/13 12:56:00;;;;;;;21.10;7.00;;;;;;;;;;4992134;28;95204;-75
2022/04/13 12:58:26;;;;;;;9.50;5.75;;;;;;;;;;4996767;28;95789;-75
2022/04/13 13:00:53;;;;;;;14.85;6.40;;;;;;;;;;4994502;28;92498;-75
2022/04/13 13:03:21;;;;;;;13.35;7.07;;;;;;;;;;4993197;28;92557;-75
2022/04/13 13:05:48;;;;;;;16.60;7.00;;;;;;;;;;4993821;28;93250;-75
2022/04/13 13:08:14;;;;;;;16.52;7.05;;;;;;;;;;4993842;28;92521;-75
2022/04/13 13:10:45;;;;;;;11.27;6.15;;;;;;;;;;4992977;28;93914;-75
2022/04/13 13:13:13;;;;;;;12.93;7.72;;;;;;;;;;4994433;28;93090;-75
2022/04/13 13:15:39;;;;;;;11.45;6.18;;;;;;;;;;4993505;28;92965;-75
2022/04/13 13:18:06;;;;;;;15.85;8.25;;;;;;;;;;4993089;28;93038;-75
2022/04/13 13:20:33;;;;;;;13.52;7.75;;;;;;;;;;4995007;28;97321;-75
2022/04/13 13:23:05;;;;;;;14.68;7.57;;;;;;;;;;4993168;28;95376;-75
2022/04/13 13:25:39;;;;;;;10.82;7.22;;;;;;;;;;4993003;28;93470;-75
2022/04/13 13:28:05;;;;;;;10.02;6.10;;;;;;;;;;4993522;28;92432;-75
2022/04/13 13:30:41;;;;;;;17.45;6.15;;;;;;;;;;4992471;28;92918;-75
2022/04/13 13:33:11;;;;;;;13.75;6.03;;;;;;;;;;4993181;28;94106;-75
2022/04/13 13:35:37;;;;;;;18.13;6.13;;;;;;;;;;4993194;28;92996;-75
2022/04/13 13:38:07;;;;;;;11.75;5.13;;;;;;;;;;4993377;28;93243;-75
2022/04/13 13:40:36;;;;;;;13.90;5.00;;;;;;;;;;4992895;28;93178;-76
2022/04/13 13:43:07;;;;;;;9.27;4.53;;;;;;;;;;4996042;28;93245;-75
2022/04/13 13:45:40;;;;;;;13.65;5.28;;;;;;;;;;4990746;28;97867;-75
2022/04/13 13:48:08;;;;;;;6.78;4.35;;;;;;;;;;4993420;28;93005;-75
2022/04/13 13:50:35;;;;;;;11.55;4.40;;;;;;;;;;4993024;28;94643;-75
2022/04/13 13:53:05;;;;;;;9.93;4.03;;;;;;;;;;4992360;28;93017;-75
2022/04/13 13:55:32;;;;;;;8.38;4.30;;;;;;;;;;4992910;28;92682;-75
2022/04/13 13:57:59;;;;;;;5.18;3.83;;;;;;;;;;4992959;28;92975;-75
2022/04/13 14:00:27;;;;;;;8.63;4.78;;;;;;;;;;4992444;28;94643;-76
2022/04/13 14:02:53;;;;;;;9.40;5.07;;;;;;;;;;4996606;28;91673;-75
2022/04/13 14:05:21;;;;;;;9.98;4.57;;;;;;;;;;4992347;28;94067;-75
2022/04/13 14:07:47;;;;;;;10.38;4.80;;;;;;;;;;4992695;28;92969;-75
2022/04/13 14:10:14;;;;;;;7.18;4.60;;;;;;;;;;4991622;28;94791;-75
2022/04/13 14:12:40;;;;;;;15.18;5.10;;;;;;;;;;4991785;28;93434;-75
2022/04/13 14:15:10;;;;;;;9.05;4.32;;;;;;;;;;4993013;28;92646;-76
2022/04/13 14:17:41;;;;;;;9.35;4.93;;;;;;;;;;4992623;28;93493;-73
2022/04/13 14:20:08;;;;;;;12.63;5.40;;;;;;;;;;4992191;28;95070;-75
2022/04/13 14:22:35;;;;;;;11.82;5.85;;;;;;;;;;4992541;28;92478;-76
2022/04/13 14:25:03;;;;;;;7.97;4.43;;;;;;;;;;4995626;28;94594;-75
2022/04/13 14:27:29;;;;;;;10.50;4.90;;;;;;;;;;4992361;28;92024;-75
2022/04/13 14:29:58;;;;;;;9.38;5.05;;;;;;;;;;4992696;28;92500;-74
2022/04/13 14:32:25;;;;;;;8.88;3.90;;;;;;;;;;4992269;28;93570;-74
2022/04/13 14:34:52;;;;;;;9.20;3.33;;;;;;;;;;4990339;28;95012;-74
2022/04/13 14:37:19;;;;;;;5.35;3.58;;;;;;;;;;4992112;28;95464;-74